Time;durP1;ratioP1;P1;durP2;ratioP2;P2;SDS_P1;SDS_P2;PMS_P1;PMS_P2;Temp;Humidity;BMP_temperature;BMP_pressure;BME280_temperature;BME280_humidity;BME280_pressure;Samples;Min_cycle;Max_cycle;Signal;HPM_P1;HPM_P2
2023/06/28 18:19:55;;;;;;;24.40;15.70;;;21.50;99.90;;;;;;5090247;28;20159;-77
2023/06/28 18:22:20;;;;;;;26.58;15.63;;;21.30;99.90;;;;;;5086292;28;20032;-72
2023/06/28 18:24:46;;;;;;;26.40;17.00;;;21.30;99.90;;;;;;5088255;28;20047;-72
2023/06/28 18:27:12;;;;;;;24.15;16.08;;;21.30;99.90;;;;;;5089130;28;20043;-74
2023/06/28 18:29:38;;;;;;;28.88;17.17;;;21.40;99.90;;;;;;5088062;28;20016;-76
2023/06/28 18:32:04;;;;;;;31.48;17.25;;;21.40;99.90;;;;;;5088083;28;20020;-74
2023/06/28 18:34:29;;;;;;;30.52;18.63;;;21.40;99.90;;;;;;5088332;28;20024;-74
2023/06/28 18:36:56;;;;;;;30.75;16.67;;;21.50;99.90;;;;;;5086297;28;20031;-76
2023/06/28 18:39:22;;;;;;;29.00;17.17;;;21.50;99.90;;;;;;5087920;28;20028;-76
2023/06/28 18:41:48;;;;;;;27.75;16.42;;;21.50;99.90;;;;;;5088038;28;20024;-73
2023/06/28 18:44:13;;;;;;;29.90;17.70;;;21.50;99.90;;;;;;5088239;28;20103;-73
2023/06/28 18:46:39;;;;;;;27.00;16.98;;;21.60;99.90;;;;;;5088269;28;20077;-73
2023/06/28 18:49:05;;;;;;;25.73;16.77;;;21.60;99.90;;;;;;5087389;28;20099;-73
2023/06/28 18:51:35;;;;;;;27.70;17.65;;;21.60;99.90;;;;;;5087863;28;20032;-73
2023/06/28 18:54:02;;;;;;;;;;;21.60;99.90;;;;;;5088649;28;20178;-72
2023/06/28 18:56:29;;;;;;;26.25;16.70;;;21.60;99.90;;;;;;5086216;28;19947;-74
2023/06/28 18:58:54;;;;;;;29.50;17.27;;;21.50;99.90;;;;;;5074172;28;20037;-74
2023/06/28 19:01:20;;;;;;;28.55;17.73;;;21.50;99.90;;;;;;5089265;28;20061;-75
2023/06/28 19:03:45;;;;;;;29.70;17.98;;;21.50;99.90;;;;;;5066093;28;20020;-72
2023/06/28 19:06:11;;;;;;;24.92;16.23;;;21.50;99.90;;;;;;5074639;28;20020;-74
2023/06/28 19:08:36;;;;;;;27.45;16.75;;;21.50;99.90;;;;;;5087848;28;20024;-71
2023/06/28 19:11:02;;;;;;;24.55;15.90;;;21.50;99.90;;;;;;5087419;28;20042;-68
2023/06/28 19:13:27;;;;;;;28.25;17.27;;;21.60;99.90;;;;;;5088501;28;20138;-70
2023/06/28 19:15:54;;;;;;;30.10;16.88;;;21.60;99.90;;;;;;5087021;28;20021;-74
2023/06/28 19:18:21;;;;;;;27.23;17.35;;;21.60;99.90;;;;;;5087149;28;20064;-71
2023/06/28 19:20:46;;;;;;;28.00;17.23;;;21.60;99.90;;;;;;5086990;28;20028;-74
2023/06/28 19:23:12;;;;;;;26.10;16.25;;;21.60;99.90;;;;;;5088384;28;20116;-73
2023/06/28 19:25:38;;;;;;;25.13;17.02;;;21.50;99.90;;;;;;5087040;28;20465;-74
2023/06/28 19:28:05;;;;;;;27.65;16.75;;;21.50;99.90;;;;;;5088181;28;20024;-74
2023/06/28 19:30:31;;;;;;;29.25;18.10;;;21.50;99.90;;;;;;5076967;28;20064;-73
2023/06/28 19:32:56;;;;;;;27.20;18.13;;;21.50;99.90;;;;;;5073884;28;20061;-73
2023/06/28 19:35:22;;;;;;;24.95;18.00;;;21.50;99.90;;;;;;5074311;28;20028;-72
2023/06/28 19:37:47;;;;;;;28.55;18.25;;;21.50;99.90;;;;;;5073955;28;20422;-71
2023/06/28 19:40:13;;;;;;;26.08;17.33;;;21.50;99.90;;;;;;5072214;28;20508;-68
2023/06/28 19:42:39;;;;;;;27.63;17.55;;;21.50;99.90;;;;;;5072552;28;20024;-71
2023/06/28 19:45:05;;;;;;;28.73;17.17;;;21.50;99.90;;;;;;5073815;28;20036;-67
2023/06/28 19:47:31;;;;;;;29.77;17.33;;;21.40;99.90;;;;;;5073629;28;20028;-73
2023/06/28 19:49:57;;;;;;;27.10;17.95;;;21.40;99.90;;;;;;5071925;28;20024;-68
2023/06/28 19:52:22;;;;;;;30.55;18.17;;;21.40;99.90;;;;;;5073471;28;20028;-73
2023/06/28 19:54:48;;;;;;;27.63;17.83;;;21.40;99.90;;;;;;5071725;28;20729;-71
2023/06/28 19:57:16;;;;;;;24.70;17.20;;;21.40;99.90;;;;;;5072804;28;20061;-76
2023/06/28 19:59:42;;;;;;;28.88;17.40;;;21.30;99.90;;;;;;5070118;28;20479;-71
2023/06/28 20:02:08;;;;;;;28.55;16.45;;;21.30;99.90;;;;;;5055145;28;20032;-76
2023/06/28 20:04:33;;;;;;;26.02;17.45;;;21.30;99.90;;;;;;5053729;28;20096;-69
2023/06/28 20:06:59;;;;;;;29.25;18.60;;;21.30;99.90;;;;;;5052782;28;20028;-76
2023/06/28 20:09:25;;;;;;;30.95;18.65;;;21.20;99.90;;;;;;5060323;28;20537;-73
2023/06/28 20:11:50;;;;;;;29.20;18.83;;;21.20;99.90;;;;;;5073548;28;20430;-75
2023/06/28 20:14:16;;;;;;;33.15;21.00;;;21.20;99.90;;;;;;5065934;28;20038;-75
2023/06/28 20:16:42;;;;;;;32.45;20.95;;;21.10;99.90;;;;;;5058651;28;20490;-73
2023/06/28 20:19:10;;;;;;;29.17;19.90;;;21.10;99.90;;;;;;5070303;28;20049;-72
2023/06/28 20:21:36;;;;;;;31.98;19.10;;;21.10;99.90;;;;;;5072057;28;20469;-76
2023/06/28 20:24:02;;;;;;;28.65;18.30;;;21.10;99.90;;;;;;5072438;28;20036;-76
2023/06/28 20:26:27;;;;;;;29.58;18.10;;;21.10;99.90;;;;;;5072353;28;20464;-79
2023/06/28 20:28:53;;;;;;;30.05;18.42;;;21.10;99.90;;;;;;5072979;28;20086;-73
2023/06/28 20:31:18;;;;;;;29.38;19.15;;;21.00;99.90;;;;;;5073228;28;20027;-79
2023/06/28 20:33:44;;;;;;;26.50;18.13;;;21.10;99.90;;;;;;5073409;28;20024;-73
2023/06/28 20:36:10;;;;;;;27.58;17.95;;;21.00;99.90;;;;;;5072494;28;20027;-78
2023/06/28 20:38:36;;;;;;;29.85;20.17;;;21.00;99.90;;;;;;5072187;28;20488;-77
2023/06/28 20:41:03;;;;;;;35.00;21.13;;;21.00;99.90;;;;;;5057545;28;20028;-77
2023/06/28 20:43:33;;;;;;;34.05;24.60;;;21.10;99.90;;;;;;5095275;28;20108;-78
2023/06/28 20:46:03;;;;;;;32.72;20.77;;;21.00;99.90;;;;;;5088345;28;20025;-78
2023/06/28 20:48:29;;;;;;;31.15;19.35;;;21.00;99.90;;;;;;5065164;28;20032;-75
2023/06/28 20:50:55;;;;;;;30.05;18.25;;;21.00;99.90;;;;;;5052188;28;20025;-79
2023/06/28 20:53:20;;;;;;;26.33;18.17;;;21.00;99.90;;;;;;5052568;28;20021;-77
2023/06/28 20:55:46;;;;;;;27.42;17.85;;;21.00;99.90;;;;;;5050563;28;20024;-76
2023/06/28 20:58:12;;;;;;;27.45;18.02;;;21.00;99.90;;;;;;5057108;28;20032;-76
2023/06/28 21:00:37;;;;;;;30.17;18.08;;;21.00;99.90;;;;;;5047568;28;20021;-73
